sensor_id;sensor_type;location;lat;lon;timestamp;P1;durP1;ratioP1;P2;durP2;ratioP2
14040;SDS011;7095;51.388;6.196;2023-03-04T00:01:58;21.70;;;3.97;;
14040;SDS011;7095;51.388;6.196;2023-03-04T00:04:27;15.73;;;3.33;;
14040;SDS011;7095;51.388;6.196;2023-03-04T00:06:55;25.30;;;3.87;;
14040;SDS011;7095;51.388;6.196;2023-03-04T00:09:25;24.30;;;4.00;;
14040;SDS011;7095;51.388;6.196;2023-03-04T00:11:54;20.70;;;3.67;;
14040;SDS011;7095;51.388;6.196;2023-03-04T00:14:22;16.37;;;3.47;;
14040;SDS011;7095;51.388;6.196;2023-03-04T00:16:50;25.20;;;3.77;;
14040;SDS011;7095;51.388;6.196;2023-03-04T00:19:19;21.60;;;4.17;;
14040;SDS011;7095;51.388;6.196;2023-03-04T00:21:47;19.20;;;4.20;;
14040;SDS011;7095;51.388;6.196;2023-03-04T00:24:16;25.77;;;5.33;;
14040;SDS011;7095;51.388;6.196;2023-03-04T00:26:46;22.37;;;4.00;;
14040;SDS011;7095;51.388;6.196;2023-03-04T00:29:14;23.90;;;4.00;;
14040;SDS011;7095;51.388;6.196;2023-03-04T00:31:43;22.67;;;4.23;;
14040;SDS011;7095;51.388;6.196;2023-03-04T00:34:11;18.30;;;4.80;;
14040;SDS011;7095;51.388;6.196;2023-03-04T00:36:40;19.27;;;3.70;;
14040;SDS011;7095;51.388;6.196;2023-03-04T00:39:10;17.40;;;4.23;;
14040;SDS011;7095;51.388;6.196;2023-03-04T00:41:39;20.77;;;3.93;;
14040;SDS011;7095;51.388;6.196;2023-03-04T00:44:09;21.47;;;4.07;;
14040;SDS011;7095;51.388;6.196;2023-03-04T00:46:37;15.70;;;4.73;;
14040;SDS011;7095;51.388;6.196;2023-03-04T00:49:05;18.23;;;4.23;;
14040;SDS011;7095;51.388;6.196;2023-03-04T00:51:34;25.63;;;4.90;;
14040;SDS011;7095;51.388;6.196;2023-03-04T00:54:03;15.90;;;3.23;;
14040;SDS011;7095;51.388;6.196;2023-03-04T00:56:31;21.60;;;3.93;;
14040;SDS011;7095;51.388;6.196;2023-03-04T00:58:59;26.10;;;4.43;;
14040;SDS011;7095;51.388;6.196;2023-03-04T01:01:29;23.67;;;4.73;;
14040;SDS011;7095;51.388;6.196;2023-03-04T01:03:58;22.27;;;5.53;;
14040;SDS011;7095;51.388;6.196;2023-03-04T01:06:26;18.00;;;4.33;;
14040;SDS011;7095;51.388;6.196;2023-03-04T01:08:54;20.17;;;4.00;;
14040;SDS011;7095;51.388;6.196;2023-03-04T01:11:23;22.10;;;3.87;;
14040;SDS011;7095;51.388;6.196;2023-03-04T01:13:51;23.03;;;3.97;;
14040;SDS011;7095;51.388;6.196;2023-03-04T01:16:20;31.47;;;5.73;;
14040;SDS011;7095;51.388;6.196;2023-03-04T01:18:49;24.50;;;4.87;;
14040;SDS011;7095;51.388;6.196;2023-03-04T01:21:18;19.70;;;4.53;;
14040;SDS011;7095;51.388;6.196;2023-03-04T01:23:47;24.13;;;5.00;;
14040;SDS011;7095;51.388;6.196;2023-03-04T01:26:15;24.67;;;5.13;;
14040;SDS011;7095;51.388;6.196;2023-03-04T01:28:46;22.23;;;4.40;;
14040;SDS011;7095;51.388;6.196;2023-03-04T01:31:14;18.83;;;4.97;;
14040;SDS011;7095;51.388;6.196;2023-03-04T01:33:43;22.87;;;4.37;;
14040;SDS011;7095;51.388;6.196;2023-03-04T01:36:13;16.40;;;3.90;;
14040;SDS011;7095;51.388;6.196;2023-03-04T01:38:41;22.00;;;5.10;;
14040;SDS011;7095;51.388;6.196;2023-03-04T01:41:10;19.63;;;4.53;;
14040;SDS011;7095;51.388;6.196;2023-03-04T01:43:39;18.03;;;4.00;;
14040;SDS011;7095;51.388;6.196;2023-03-04T01:46:08;23.53;;;4.50;;
14040;SDS011;7095;51.388;6.196;2023-03-04T01:48:37;32.70;;;4.43;;
14040;SDS011;7095;51.388;6.196;2023-03-04T01:51:09;22.73;;;4.70;;
14040;SDS011;7095;51.388;6.196;2023-03-04T01:53:42;22.83;;;4.53;;
14040;SDS011;7095;51.388;6.196;2023-03-04T01:56:21;21.00;;;4.43;;
14040;SDS011;7095;51.388;6.196;2023-03-04T01:59:10;16.90;;;4.43;;
14040;SDS011;7095;51.388;6.196;2023-03-04T02:01:40;24.60;;;4.90;;
14040;SDS011;7095;51.388;6.196;2023-03-04T02:04:11;23.67;;;5.13;;
14040;SDS011;7095;51.388;6.196;2023-03-04T02:06:41;24.20;;;4.70;;
14040;SDS011;7095;51.388;6.196;2023-03-04T02:09:11;20.37;;;4.70;;
14040;SDS011;7095;51.388;6.196;2023-03-04T02:11:40;14.17;;;4.70;;
14040;SDS011;7095;51.388;6.196;2023-03-04T02:14:09;22.60;;;4.27;;
14040;SDS011;7095;51.388;6.196;2023-03-04T02:16:38;21.27;;;4.13;;
14040;SDS011;7095;51.388;6.196;2023-03-04T02:19:10;17.50;;;3.93;;
14040;SDS011;7095;51.388;6.196;2023-03-04T02:21:45;20.30;;;3.73;;
14040;SDS011;7095;51.388;6.196;2023-03-04T02:24:18;23.73;;;4.40;;
14040;SDS011;7095;51.388;6.196;2023-03-04T02:26:54;18.07;;;3.50;;
14040;SDS011;7095;51.388;6.196;2023-03-04T02:29:22;15.37;;;3.20;;
14040;SDS011;7095;51.388;6.196;2023-03-04T02:31:51;23.27;;;5.07;;
14040;SDS011;7095;51.388;6.196;2023-03-04T02:34:21;20.07;;;4.63;;
14040;SDS011;7095;51.388;6.196;2023-03-04T02:36:52;25.23;;;4.43;;
14040;SDS011;7095;51.388;6.196;2023-03-04T02:39:24;24.83;;;4.50;;
14040;SDS011;7095;51.388;6.196;2023-03-04T02:41:58;15.50;;;3.67;;
14040;SDS011;7095;51.388;6.196;2023-03-04T02:44:31;20.53;;;4.10;;
14040;SDS011;7095;51.388;6.196;2023-03-04T02:47:01;23.77;;;4.03;;
14040;SDS011;7095;51.388;6.196;2023-03-04T02:49:31;23.83;;;4.47;;
14040;SDS011;7095;51.388;6.196;2023-03-04T02:52:01;17.20;;;3.97;;
14040;SDS011;7095;51.388;6.196;2023-03-04T02:54:32;21.80;;;3.93;;
14040;SDS011;7095;51.388;6.196;2023-03-04T02:57:03;14.57;;;3.47;;
14040;SDS011;7095;51.388;6.196;2023-03-04T02:59:35;22.20;;;4.53;;
14040;SDS011;7095;51.388;6.196;2023-03-04T03:02:05;16.70;;;3.67;;
14040;SDS011;7095;51.388;6.196;2023-03-04T03:04:36;21.27;;;4.43;;
14040;SDS011;7095;51.388;6.196;2023-03-04T03:07:09;16.87;;;4.07;;
14040;SDS011;7095;51.388;6.196;2023-03-04T03:09:38;20.77;;;3.83;;
14040;SDS011;7095;51.388;6.196;2023-03-04T03:12:09;19.47;;;4.10;;
14040;SDS011;7095;51.388;6.196;2023-03-04T03:14:37;13.53;;;3.03;;
14040;SDS011;7095;51.388;6.196;2023-03-04T03:17:08;14.83;;;3.97;;
14040;SDS011;7095;51.388;6.196;2023-03-04T03:19:37;19.33;;;3.90;;
14040;SDS011;7095;51.388;6.196;2023-03-04T03:22:07;20.70;;;4.23;;
14040;SDS011;7095;51.388;6.196;2023-03-04T03:24:35;17.03;;;4.77;;
14040;SDS011;7095;51.388;6.196;2023-03-04T03:27:04;25.63;;;4.70;;
14040;SDS011;7095;51.388;6.196;2023-03-04T03:29:34;21.43;;;4.77;;
14040;SDS011;7095;51.388;6.196;2023-03-04T03:32:06;21.27;;;4.07;;
14040;SDS011;7095;51.388;6.196;2023-03-04T03:34:35;20.73;;;4.30;;
14040;SDS011;7095;51.388;6.196;2023-03-04T03:37:03;22.47;;;4.43;;
14040;SDS011;7095;51.388;6.196;2023-03-04T03:39:31;21.00;;;4.83;;
14040;SDS011;7095;51.388;6.196;2023-03-04T03:42:00;17.17;;;3.30;;
14040;SDS011;7095;51.388;6.196;2023-03-04T03:44:28;23.10;;;3.80;;
14040;SDS011;7095;51.388;6.196;2023-03-04T03:47:07;16.50;;;3.07;;
14040;SDS011;7095;51.388;6.196;2023-03-04T03:49:36;15.40;;;3.97;;
14040;SDS011;7095;51.388;6.196;2023-03-04T03:52:04;15.73;;;4.27;;
14040;SDS011;7095;51.388;6.196;2023-03-04T03:54:34;18.07;;;4.07;;
14040;SDS011;7095;51.388;6.196;2023-03-04T03:57:02;27.33;;;5.43;;
14040;SDS011;7095;51.388;6.196;2023-03-04T03:59:31;14.53;;;3.70;;
14040;SDS011;7095;51.388;6.196;2023-03-04T04:01:59;16.63;;;4.30;;
14040;SDS011;7095;51.388;6.196;2023-03-04T04:04:29;14.90;;;3.20;;
14040;SDS011;7095;51.388;6.196;2023-03-04T04:06:58;19.20;;;3.93;;
14040;SDS011;7095;51.388;6.196;2023-03-04T04:09:26;13.80;;;3.67;;
14040;SDS011;7095;51.388;6.196;2023-03-04T04:11:55;22.90;;;4.67;;
14040;SDS011;7095;51.388;6.196;2023-03-04T04:14:23;16.67;;;3.97;;
14040;SDS011;7095;51.388;6.196;2023-03-04T04:16:52;14.20;;;4.13;;
14040;SDS011;7095;51.388;6.196;2023-03-04T04:19:20;19.60;;;4.63;;
14040;SDS011;7095;51.388;6.196;2023-03-04T04:21:50;11.90;;;3.70;;
14040;SDS011;7095;51.388;6.196;2023-03-04T04:24:18;18.63;;;3.00;;
14040;SDS011;7095;51.388;6.196;2023-03-04T04:26:47;25.00;;;4.50;;
14040;SDS011;7095;51.388;6.196;2023-03-04T04:29:15;21.83;;;3.30;;
14040;SDS011;7095;51.388;6.196;2023-03-04T04:31:44;13.97;;;3.03;;
14040;SDS011;7095;51.388;6.196;2023-03-04T04:34:12;16.77;;;3.57;;
14040;SDS011;7095;51.388;6.196;2023-03-04T04:36:40;20.37;;;3.70;;
14040;SDS011;7095;51.388;6.196;2023-03-04T04:39:10;9.20;;;2.67;;
14040;SDS011;7095;51.388;6.196;2023-03-04T04:41:39;12.00;;;2.47;;
14040;SDS011;7095;51.388;6.196;2023-03-04T04:44:09;17.37;;;3.60;;
14040;SDS011;7095;51.388;6.196;2023-03-04T04:46:38;20.00;;;3.43;;
14040;SDS011;7095;51.388;6.196;2023-03-04T04:49:07;14.40;;;2.83;;
14040;SDS011;7095;51.388;6.196;2023-03-04T04:51:37;11.70;;;2.97;;
14040;SDS011;7095;51.388;6.196;2023-03-04T04:54:06;17.17;;;2.90;;
14040;SDS011;7095;51.388;6.196;2023-03-04T04:56:35;16.23;;;3.57;;
14040;SDS011;7095;51.388;6.196;2023-03-04T04:59:05;23.63;;;3.77;;
14040;SDS011;7095;51.388;6.196;2023-03-04T05:01:34;11.50;;;2.70;;
14040;SDS011;7095;51.388;6.196;2023-03-04T05:04:02;15.70;;;3.33;;
14040;SDS011;7095;51.388;6.196;2023-03-04T05:06:31;19.93;;;3.67;;
14040;SDS011;7095;51.388;6.196;2023-03-04T05:09:00;20.13;;;3.40;;
14040;SDS011;7095;51.388;6.196;2023-03-04T05:11:28;11.27;;;2.70;;
14040;SDS011;7095;51.388;6.196;2023-03-04T05:14:01;13.80;;;3.57;;
14040;SDS011;7095;51.388;6.196;2023-03-04T05:16:30;20.30;;;3.17;;
14040;SDS011;7095;51.388;6.196;2023-03-04T05:18:58;19.47;;;2.90;;
14040;SDS011;7095;51.388;6.196;2023-03-04T05:21:27;25.73;;;4.03;;
14040;SDS011;7095;51.388;6.196;2023-03-04T05:23:55;14.67;;;2.63;;
14040;SDS011;7095;51.388;6.196;2023-03-04T05:26:23;18.17;;;3.17;;
14040;SDS011;7095;51.388;6.196;2023-03-04T05:28:52;13.10;;;2.87;;
14040;SDS011;7095;51.388;6.196;2023-03-04T05:31:22;17.40;;;3.17;;
14040;SDS011;7095;51.388;6.196;2023-03-04T05:33:50;12.13;;;2.60;;
14040;SDS011;7095;51.388;6.196;2023-03-04T05:36:19;19.33;;;3.27;;
14040;SDS011;7095;51.388;6.196;2023-03-04T05:38:47;18.70;;;3.13;;
14040;SDS011;7095;51.388;6.196;2023-03-04T05:41:15;12.07;;;2.40;;
14040;SDS011;7095;51.388;6.196;2023-03-04T05:43:46;7.97;;;2.70;;
14040;SDS011;7095;51.388;6.196;2023-03-04T05:46:14;13.43;;;2.07;;
14040;SDS011;7095;51.388;6.196;2023-03-04T05:48:51;23.20;;;4.13;;
14040;SDS011;7095;51.388;6.196;2023-03-04T05:51:20;14.03;;;3.97;;
14040;SDS011;7095;51.388;6.196;2023-03-04T05:53:48;15.53;;;3.07;;
14040;SDS011;7095;51.388;6.196;2023-03-04T05:56:18;15.50;;;3.20;;
14040;SDS011;7095;51.388;6.196;2023-03-04T05:58:47;24.20;;;3.50;;
14040;SDS011;7095;51.388;6.196;2023-03-04T06:01:15;21.63;;;4.07;;
14040;SDS011;7095;51.388;6.196;2023-03-04T06:03:44;18.67;;;3.20;;
14040;SDS011;7095;51.388;6.196;2023-03-04T06:06:15;11.70;;;3.43;;
14040;SDS011;7095;51.388;6.196;2023-03-04T06:08:44;17.40;;;2.97;;
14040;SDS011;7095;51.388;6.196;2023-03-04T06:11:12;19.23;;;3.40;;
14040;SDS011;7095;51.388;6.196;2023-03-04T06:13:41;9.23;;;2.27;;
14040;SDS011;7095;51.388;6.196;2023-03-04T06:16:09;12.63;;;2.70;;
14040;SDS011;7095;51.388;6.196;2023-03-04T06:18:38;12.23;;;2.40;;
14040;SDS011;7095;51.388;6.196;2023-03-04T06:21:06;16.73;;;2.77;;
14040;SDS011;7095;51.388;6.196;2023-03-04T06:23:36;15.53;;;2.70;;
14040;SDS011;7095;51.388;6.196;2023-03-04T06:26:05;12.30;;;2.23;;
14040;SDS011;7095;51.388;6.196;2023-03-04T06:28:35;16.90;;;3.10;;
14040;SDS011;7095;51.388;6.196;2023-03-04T06:31:04;18.57;;;2.50;;
14040;SDS011;7095;51.388;6.196;2023-03-04T06:33:32;20.43;;;3.40;;
14040;SDS011;7095;51.388;6.196;2023-03-04T06:36:01;23.23;;;3.20;;
14040;SDS011;7095;51.388;6.196;2023-03-04T06:38:30;16.50;;;3.50;;
14040;SDS011;7095;51.388;6.196;2023-03-04T06:41:20;13.40;;;3.20;;
14040;SDS011;7095;51.388;6.196;2023-03-04T06:43:48;15.17;;;2.93;;
14040;SDS011;7095;51.388;6.196;2023-03-04T06:46:16;12.53;;;2.87;;
14040;SDS011;7095;51.388;6.196;2023-03-04T06:48:45;12.27;;;3.63;;
14040;SDS011;7095;51.388;6.196;2023-03-04T06:51:13;10.90;;;2.37;;
14040;SDS011;7095;51.388;6.196;2023-03-04T06:53:45;20.73;;;3.63;;
14040;SDS011;7095;51.388;6.196;2023-03-04T06:56:13;17.80;;;3.13;;
14040;SDS011;7095;51.388;6.196;2023-03-04T06:58:44;10.67;;;2.23;;
14040;SDS011;7095;51.388;6.196;2023-03-04T07:01:14;11.47;;;2.73;;
14040;SDS011;7095;51.388;6.196;2023-03-04T07:03:43;17.83;;;3.77;;
14040;SDS011;7095;51.388;6.196;2023-03-04T07:06:13;11.37;;;2.53;;
14040;SDS011;7095;51.388;6.196;2023-03-04T07:08:43;13.33;;;2.80;;
14040;SDS011;7095;51.388;6.196;2023-03-04T07:11:12;9.50;;;1.93;;
14040;SDS011;7095;51.388;6.196;2023-03-04T07:13:41;13.00;;;2.70;;
14040;SDS011;7095;51.388;6.196;2023-03-04T07:16:13;19.90;;;3.10;;
14040;SDS011;7095;51.388;6.196;2023-03-04T07:18:43;20.73;;;2.67;;
14040;SDS011;7095;51.388;6.196;2023-03-04T07:21:15;13.93;;;2.57;;
14040;SDS011;7095;51.388;6.196;2023-03-04T07:23:45;12.60;;;3.43;;
14040;SDS011;7095;51.388;6.196;2023-03-04T07:26:14;10.80;;;2.63;;
14040;SDS011;7095;51.388;6.196;2023-03-04T07:28:43;15.43;;;3.60;;
14040;SDS011;7095;51.388;6.196;2023-03-04T07:31:20;14.93;;;3.30;;
14040;SDS011;7095;51.388;6.196;2023-03-04T07:33:50;14.00;;;2.70;;
14040;SDS011;7095;51.388;6.196;2023-03-04T07:36:19;17.83;;;3.73;;
14040;SDS011;7095;51.388;6.196;2023-03-04T07:38:48;17.10;;;3.03;;
14040;SDS011;7095;51.388;6.196;2023-03-04T07:41:17;8.93;;;3.90;;
14040;SDS011;7095;51.388;6.196;2023-03-04T07:43:46;20.63;;;3.60;;
14040;SDS011;7095;51.388;6.196;2023-03-04T07:46:16;17.33;;;3.67;;
14040;SDS011;7095;51.388;6.196;2023-03-04T07:48:45;24.07;;;5.13;;
14040;SDS011;7095;51.388;6.196;2023-03-04T07:51:14;13.87;;;3.17;;
14040;SDS011;7095;51.388;6.196;2023-03-04T07:53:44;16.87;;;3.70;;
14040;SDS011;7095;51.388;6.196;2023-03-04T07:56:15;19.23;;;3.40;;
14040;SDS011;7095;51.388;6.196;2023-03-04T07:58:45;14.53;;;3.43;;
14040;SDS011;7095;51.388;6.196;2023-03-04T08:01:14;16.00;;;3.10;;
14040;SDS011;7095;51.388;6.196;2023-03-04T08:03:46;28.73;;;4.70;;
14040;SDS011;7095;51.388;6.196;2023-03-04T08:06:15;17.77;;;3.63;;
14040;SDS011;7095;51.388;6.196;2023-03-04T08:08:45;13.73;;;3.17;;
14040;SDS011;7095;51.388;6.196;2023-03-04T08:11:15;15.50;;;3.27;;
14040;SDS011;7095;51.388;6.196;2023-03-04T08:13:45;20.60;;;3.00;;
14040;SDS011;7095;51.388;6.196;2023-03-04T08:16:15;10.50;;;3.20;;
14040;SDS011;7095;51.388;6.196;2023-03-04T08:18:47;12.23;;;2.90;;
14040;SDS011;7095;51.388;6.196;2023-03-04T08:21:17;12.70;;;3.33;;
14040;SDS011;7095;51.388;6.196;2023-03-04T08:23:47;16.57;;;2.83;;
14040;SDS011;7095;51.388;6.196;2023-03-04T08:26:17;11.93;;;3.10;;
14040;SDS011;7095;51.388;6.196;2023-03-04T08:28:47;19.13;;;3.00;;
14040;SDS011;7095;51.388;6.196;2023-03-04T08:31:17;16.40;;;3.50;;
14040;SDS011;7095;51.388;6.196;2023-03-04T08:33:46;19.87;;;3.47;;
14040;SDS011;7095;51.388;6.196;2023-03-04T08:36:15;11.20;;;3.37;;
14040;SDS011;7095;51.388;6.196;2023-03-04T08:38:43;15.53;;;3.57;;
14040;SDS011;7095;51.388;6.196;2023-03-04T08:41:12;18.40;;;3.70;;
14040;SDS011;7095;51.388;6.196;2023-03-04T08:43:41;13.70;;;3.00;;
14040;SDS011;7095;51.388;6.196;2023-03-04T08:46:10;19.10;;;4.40;;
14040;SDS011;7095;51.388;6.196;2023-03-04T08:48:40;15.60;;;2.93;;
14040;SDS011;7095;51.388;6.196;2023-03-04T08:51:10;21.47;;;3.47;;
14040;SDS011;7095;51.388;6.196;2023-03-04T08:53:39;16.17;;;3.53;;
14040;SDS011;7095;51.388;6.196;2023-03-04T08:56:11;18.03;;;3.50;;
14040;SDS011;7095;51.388;6.196;2023-03-04T08:58:40;15.77;;;3.23;;
14040;SDS011;7095;51.388;6.196;2023-03-04T09:01:09;16.93;;;3.47;;
14040;SDS011;7095;51.388;6.196;2023-03-04T09:03:39;9.90;;;3.70;;
14040;SDS011;7095;51.388;6.196;2023-03-04T09:06:10;9.77;;;2.93;;
14040;SDS011;7095;51.388;6.196;2023-03-04T09:08:41;10.47;;;2.87;;
14040;SDS011;7095;51.388;6.196;2023-03-04T09:11:09;15.10;;;3.63;;
14040;SDS011;7095;51.388;6.196;2023-03-04T09:13:38;8.47;;;2.67;;
14040;SDS011;7095;51.388;6.196;2023-03-04T09:16:08;11.60;;;2.93;;
14040;SDS011;7095;51.388;6.196;2023-03-04T09:18:37;13.93;;;4.60;;
14040;SDS011;7095;51.388;6.196;2023-03-04T09:21:08;8.20;;;2.50;;
14040;SDS011;7095;51.388;6.196;2023-03-04T09:23:37;15.57;;;4.23;;
14040;SDS011;7095;51.388;6.196;2023-03-04T09:26:12;16.73;;;3.60;;
14040;SDS011;7095;51.388;6.196;2023-03-04T09:28:42;12.33;;;3.47;;
14040;SDS011;7095;51.388;6.196;2023-03-04T09:31:11;16.00;;;3.83;;
14040;SDS011;7095;51.388;6.196;2023-03-04T09:33:40;11.37;;;3.63;;
14040;SDS011;7095;51.388;6.196;2023-03-04T09:36:11;12.53;;;2.83;;
14040;SDS011;7095;51.388;6.196;2023-03-04T09:38:40;17.13;;;4.37;;
14040;SDS011;7095;51.388;6.196;2023-03-04T09:41:11;14.13;;;2.70;;
14040;SDS011;7095;51.388;6.196;2023-03-04T09:43:43;11.97;;;2.57;;
14040;SDS011;7095;51.388;6.196;2023-03-04T09:46:14;8.23;;;2.17;;
14040;SDS011;7095;51.388;6.196;2023-03-04T09:48:46;13.30;;;2.77;;
14040;SDS011;7095;51.388;6.196;2023-03-04T09:51:22;9.63;;;2.60;;
14040;SDS011;7095;51.388;6.196;2023-03-04T09:54:04;11.17;;;2.63;;
14040;SDS011;7095;51.388;6.196;2023-03-04T09:56:36;8.20;;;2.40;;
14040;SDS011;7095;51.388;6.196;2023-03-04T09:59:10;4.80;;;2.20;;
14040;SDS011;7095;51.388;6.196;2023-03-04T10:01:46;6.37;;;1.70;;
14040;SDS011;7095;51.388;6.196;2023-03-04T10:04:16;8.13;;;1.97;;
14040;SDS011;7095;51.388;6.196;2023-03-04T10:06:54;16.17;;;3.90;;
14040;SDS011;7095;51.388;6.196;2023-03-04T10:09:24;7.53;;;2.40;;
14040;SDS011;7095;51.388;6.196;2023-03-04T10:11:58;11.00;;;2.33;;
14040;SDS011;7095;51.388;6.196;2023-03-04T10:14:32;13.60;;;2.60;;
14040;SDS011;7095;51.388;6.196;2023-03-04T10:17:04;7.33;;;2.43;;
14040;SDS011;7095;51.388;6.196;2023-03-04T10:19:46;10.53;;;2.60;;
14040;SDS011;7095;51.388;6.196;2023-03-04T10:22:22;10.33;;;2.93;;
14040;SDS011;7095;51.388;6.196;2023-03-04T10:24:56;13.13;;;2.53;;
14040;SDS011;7095;51.388;6.196;2023-03-04T10:27:29;9.53;;;2.77;;
14040;SDS011;7095;51.388;6.196;2023-03-04T10:29:58;4.47;;;1.70;;
14040;SDS011;7095;51.388;6.196;2023-03-04T10:32:27;6.07;;;2.27;;
14040;SDS011;7095;51.388;6.196;2023-03-04T10:34:56;10.70;;;2.33;;
14040;SDS011;7095;51.388;6.196;2023-03-04T10:37:25;8.27;;;2.03;;
14040;SDS011;7095;51.388;6.196;2023-03-04T10:40:17;5.27;;;1.90;;
14040;SDS011;7095;51.388;6.196;2023-03-04T10:42:47;6.40;;;1.63;;
14040;SDS011;7095;51.388;6.196;2023-03-04T10:45:20;2.57;;;1.40;;
14040;SDS011;7095;51.388;6.196;2023-03-04T10:47:51;8.67;;;2.00;;
14040;SDS011;7095;51.388;6.196;2023-03-04T10:50:20;4.40;;;1.70;;
14040;SDS011;7095;51.388;6.196;2023-03-04T10:52:51;6.80;;;1.53;;
14040;SDS011;7095;51.388;6.196;2023-03-04T10:55:22;2.27;;;1.40;;
14040;SDS011;7095;51.388;6.196;2023-03-04T10:57:53;7.97;;;1.90;;
14040;SDS011;7095;51.388;6.196;2023-03-04T11:00:27;9.80;;;2.17;;
14040;SDS011;7095;51.388;6.196;2023-03-04T11:03:17;7.13;;;1.60;;
14040;SDS011;7095;51.388;6.196;2023-03-04T11:05:50;7.40;;;1.63;;
14040;SDS011;7095;51.388;6.196;2023-03-04T11:08:21;11.97;;;2.70;;
14040;SDS011;7095;51.388;6.196;2023-03-04T11:10:50;8.00;;;3.20;;
14040;SDS011;7095;51.388;6.196;2023-03-04T11:13:23;10.47;;;3.00;;
14040;SDS011;7095;51.388;6.196;2023-03-04T11:15:54;9.93;;;2.93;;
14040;SDS011;7095;51.388;6.196;2023-03-04T11:18:26;11.53;;;2.60;;
14040;SDS011;7095;51.388;6.196;2023-03-04T11:20:59;5.73;;;2.47;;
14040;SDS011;7095;51.388;6.196;2023-03-04T11:23:32;7.43;;;2.37;;
14040;SDS011;7095;51.388;6.196;2023-03-04T11:26:08;8.53;;;1.90;;
14040;SDS011;7095;51.388;6.196;2023-03-04T11:28:41;7.03;;;2.47;;
14040;SDS011;7095;51.388;6.196;2023-03-04T11:31:14;7.47;;;1.83;;
14040;SDS011;7095;51.388;6.196;2023-03-04T11:33:48;5.57;;;2.10;;
14040;SDS011;7095;51.388;6.196;2023-03-04T11:36:22;7.17;;;1.53;;
14040;SDS011;7095;51.388;6.196;2023-03-04T11:39:02;9.87;;;1.93;;
14040;SDS011;7095;51.388;6.196;2023-03-04T11:41:32;5.33;;;1.50;;
14040;SDS011;7095;51.388;6.196;2023-03-04T11:44:04;1.73;;;1.20;;
14040;SDS011;7095;51.388;6.196;2023-03-04T11:46:40;6.07;;;1.50;;
14040;SDS011;7095;51.388;6.196;2023-03-04T11:49:30;6.27;;;1.43;;
14040;SDS011;7095;51.388;6.196;2023-03-04T11:52:13;7.97;;;1.87;;
14040;SDS011;7095;51.388;6.196;2023-03-04T11:54:57;8.97;;;1.93;;
14040;SDS011;7095;51.388;6.196;2023-03-04T11:57:42;4.70;;;1.97;;
14040;SDS011;7095;51.388;6.196;2023-03-04T12:00:24;4.00;;;1.47;;
14040;SDS011;7095;51.388;6.196;2023-03-04T12:03:12;6.67;;;2.40;;
14040;SDS011;7095;51.388;6.196;2023-03-04T12:05:52;5.17;;;1.70;;
14040;SDS011;7095;51.388;6.196;2023-03-04T12:08:32;4.13;;;1.57;;
14040;SDS011;7095;51.388;6.196;2023-03-04T12:11:13;2.80;;;1.57;;
14040;SDS011;7095;51.388;6.196;2023-03-04T12:13:54;5.77;;;2.30;;
14040;SDS011;7095;51.388;6.196;2023-03-04T12:19:36;3.00;;;1.27;;
14040;SDS011;7095;51.388;6.196;2023-03-04T12:22:24;7.33;;;1.73;;
14040;SDS011;7095;51.388;6.196;2023-03-04T12:25:02;2.53;;;1.17;;
14040;SDS011;7095;51.388;6.196;2023-03-04T12:27:50;3.50;;;1.00;;
14040;SDS011;7095;51.388;6.196;2023-03-04T12:30:32;4.33;;;1.23;;
14040;SDS011;7095;51.388;6.196;2023-03-04T12:33:10;2.80;;;1.13;;
14040;SDS011;7095;51.388;6.196;2023-03-04T12:35:51;4.57;;;1.60;;
14040;SDS011;7095;51.388;6.196;2023-03-04T12:38:34;2.27;;;1.23;;
14040;SDS011;7095;51.388;6.196;2023-03-04T12:41:24;3.43;;;1.60;;
14040;SDS011;7095;51.388;6.196;2023-03-04T12:44:06;2.80;;;1.80;;
14040;SDS011;7095;51.388;6.196;2023-03-04T12:47:01;6.33;;;1.67;;
14040;SDS011;7095;51.388;6.196;2023-03-04T12:49:52;5.00;;;1.70;;
14040;SDS011;7095;51.388;6.196;2023-03-04T12:52:30;5.10;;;1.80;;
14040;SDS011;7095;51.388;6.196;2023-03-04T12:55:09;3.90;;;1.97;;
14040;SDS011;7095;51.388;6.196;2023-03-04T12:57:41;4.43;;;1.80;;
14040;SDS011;7095;51.388;6.196;2023-03-04T13:00:19;3.63;;;1.53;;
14040;SDS011;7095;51.388;6.196;2023-03-04T13:03:03;2.93;;;1.50;;
14040;SDS011;7095;51.388;6.196;2023-03-04T13:05:43;3.17;;;2.17;;
14040;SDS011;7095;51.388;6.196;2023-03-04T13:08:25;3.93;;;2.07;;
14040;SDS011;7095;51.388;6.196;2023-03-04T13:11:02;3.77;;;1.60;;
14040;SDS011;7095;51.388;6.196;2023-03-04T13:14:07;3.87;;;1.50;;
14040;SDS011;7095;51.388;6.196;2023-03-04T13:16:53;4.07;;;2.00;;
14040;SDS011;7095;51.388;6.196;2023-03-04T13:22:27;3.83;;;1.40;;
14040;SDS011;7095;51.388;6.196;2023-03-04T13:24:57;1.73;;;1.23;;
14040;SDS011;7095;51.388;6.196;2023-03-04T13:27:45;1.80;;;1.30;;
14040;SDS011;7095;51.388;6.196;2023-03-04T13:39:23;2.70;;;1.40;;
14040;SDS011;7095;51.388;6.196;2023-03-04T13:41:57;3.10;;;1.80;;
14040;SDS011;7095;51.388;6.196;2023-03-04T13:44:33;5.07;;;1.53;;
14040;SDS011;7095;51.388;6.196;2023-03-04T13:47:25;3.37;;;1.43;;
14040;SDS011;7095;51.388;6.196;2023-03-04T13:50:26;2.87;;;1.57;;
14040;SDS011;7095;51.388;6.196;2023-03-04T13:56:30;5.63;;;1.90;;
14040;SDS011;7095;51.388;6.196;2023-03-04T13:59:08;2.00;;;1.63;;
14040;SDS011;7095;51.388;6.196;2023-03-04T14:04:41;5.03;;;2.90;;
14040;SDS011;7095;51.388;6.196;2023-03-04T14:07:20;4.93;;;1.77;;
14040;SDS011;7095;51.388;6.196;2023-03-04T14:09:53;3.03;;;1.30;;
14040;SDS011;7095;51.388;6.196;2023-03-04T14:12:24;2.97;;;1.60;;
14040;SDS011;7095;51.388;6.196;2023-03-04T14:14:55;1.97;;;1.60;;
14040;SDS011;7095;51.388;6.196;2023-03-04T14:17:28;4.23;;;2.23;;
14040;SDS011;7095;51.388;6.196;2023-03-04T14:19:58;4.23;;;2.67;;
14040;SDS011;7095;51.388;6.196;2023-03-04T14:22:31;5.10;;;2.43;;
14040;SDS011;7095;51.388;6.196;2023-03-04T14:25:06;3.97;;;2.63;;
14040;SDS011;7095;51.388;6.196;2023-03-04T14:27:49;5.57;;;2.70;;
14040;SDS011;7095;51.388;6.196;2023-03-04T14:30:29;2.97;;;2.20;;
14040;SDS011;7095;51.388;6.196;2023-03-04T14:33:13;3.23;;;2.00;;
14040;SDS011;7095;51.388;6.196;2023-03-04T14:35:45;4.47;;;2.40;;
14040;SDS011;7095;51.388;6.196;2023-03-04T14:38:18;3.70;;;2.60;;
14040;SDS011;7095;51.388;6.196;2023-03-04T14:40:51;3.97;;;2.97;;
14040;SDS011;7095;51.388;6.196;2023-03-04T14:43:23;5.33;;;3.20;;
14040;SDS011;7095;51.388;6.196;2023-03-04T14:45:53;4.50;;;3.50;;
14040;SDS011;7095;51.388;6.196;2023-03-04T14:48:25;6.17;;;3.20;;
14040;SDS011;7095;51.388;6.196;2023-03-04T14:50:56;6.53;;;2.87;;
14040;SDS011;7095;51.388;6.196;2023-03-04T14:53:27;8.23;;;3.93;;
14040;SDS011;7095;51.388;6.196;2023-03-04T14:55:57;4.97;;;3.23;;
14040;SDS011;7095;51.388;6.196;2023-03-04T14:58:27;5.90;;;3.07;;
14040;SDS011;7095;51.388;6.196;2023-03-04T15:01:07;3.73;;;2.60;;
14040;SDS011;7095;51.388;6.196;2023-03-04T15:03:41;4.47;;;2.27;;
14040;SDS011;7095;51.388;6.196;2023-03-04T15:06:17;4.20;;;2.30;;
14040;SDS011;7095;51.388;6.196;2023-03-04T15:08:55;3.60;;;2.53;;
14040;SDS011;7095;51.388;6.196;2023-03-04T15:11:29;3.63;;;2.20;;
14040;SDS011;7095;51.388;6.196;2023-03-04T15:13:59;4.10;;;1.70;;
14040;SDS011;7095;51.388;6.196;2023-03-04T15:16:51;3.23;;;2.07;;
14040;SDS011;7095;51.388;6.196;2023-03-04T15:19:26;5.00;;;1.83;;
14040;SDS011;7095;51.388;6.196;2023-03-04T15:22:02;3.20;;;1.73;;
14040;SDS011;7095;51.388;6.196;2023-03-04T15:24:34;2.60;;;1.77;;
14040;SDS011;7095;51.388;6.196;2023-03-04T15:27:03;2.37;;;1.53;;
14040;SDS011;7095;51.388;6.196;2023-03-04T15:29:34;2.30;;;1.70;;
14040;SDS011;7095;51.388;6.196;2023-03-04T15:32:02;2.97;;;1.93;;
14040;SDS011;7095;51.388;6.196;2023-03-04T15:34:31;3.90;;;1.60;;
14040;SDS011;7095;51.388;6.196;2023-03-04T15:37:00;3.80;;;1.93;;
14040;SDS011;7095;51.388;6.196;2023-03-04T15:39:29;1.53;;;1.40;;
14040;SDS011;7095;51.388;6.196;2023-03-04T15:41:59;5.13;;;1.70;;
14040;SDS011;7095;51.388;6.196;2023-03-04T15:44:27;6.83;;;1.77;;